sensor_id;sensor_type;location;lat;lon;timestamp;temperature;humidity
46652;DHT22;32377;52.182;5.398;2023-12-20T00:01:31;6.70;99.90
46652;DHT22;32377;52.182;5.398;2023-12-20T00:03:57;6.70;99.90
46652;DHT22;32377;52.182;5.398;2023-12-20T00:06:22;6.70;99.90
46652;DHT22;32377;52.182;5.398;2023-12-20T00:08:48;6.60;99.90
46652;DHT22;32377;52.182;5.398;2023-12-20T00:11:14;6.70;99.90
46652;DHT22;32377;52.182;5.398;2023-12-20T00:13:39;6.60;99.90
46652;DHT22;32377;52.182;5.398;2023-12-20T00:16:05;6.60;99.90
46652;DHT22;32377;52.182;5.398;2023-12-20T00:18:30;6.50;99.90
46652;DHT22;32377;52.182;5.398;2023-12-20T00:20:56;6.50;99.90
46652;DHT22;32377;52.182;5.398;2023-12-20T00:23:22;6.40;99.90
46652;DHT22;32377;52.182;5.398;2023-12-20T00:25:48;6.50;99.90
46652;DHT22;32377;52.182;5.398;2023-12-20T00:28:14;6.40;99.90
46652;DHT22;32377;52.182;5.398;2023-12-20T00:30:40;6.40;99.90
46652;DHT22;32377;52.182;5.398;2023-12-20T00:33:05;6.30;99.90
46652;DHT22;32377;52.182;5.398;2023-12-20T00:35:31;6.30;99.90
46652;DHT22;32377;52.182;5.398;2023-12-20T00:37:57;6.30;99.90
46652;DHT22;32377;52.182;5.398;2023-12-20T00:40:23;6.30;99.90
46652;DHT22;32377;52.182;5.398;2023-12-20T00:42:49;6.30;99.90
46652;DHT22;32377;52.182;5.398;2023-12-20T00:45:15;6.30;99.90
46652;DHT22;32377;52.182;5.398;2023-12-20T00:47:40;6.30;99.90
46652;DHT22;32377;52.182;5.398;2023-12-20T00:50:06;6.30;99.90
46652;DHT22;32377;52.182;5.398;2023-12-20T00:52:32;6.20;99.90
46652;DHT22;32377;52.182;5.398;2023-12-20T00:54:58;6.20;99.90
46652;DHT22;32377;52.182;5.398;2023-12-20T00:57:23;6.30;99.90
46652;DHT22;32377;52.182;5.398;2023-12-20T00:59:49;6.30;99.90
46652;DHT22;32377;52.182;5.398;2023-12-20T01:02:14;6.30;99.90
46652;DHT22;32377;52.182;5.398;2023-12-20T01:04:40;6.20;99.90
46652;DHT22;32377;52.182;5.398;2023-12-20T01:07:05;6.30;99.90
46652;DHT22;32377;52.182;5.398;2023-12-20T01:09:31;6.30;99.90
46652;DHT22;32377;52.182;5.398;2023-12-20T01:11:57;6.40;99.90
46652;DHT22;32377;52.182;5.398;2023-12-20T01:14:22;6.30;99.90
46652;DHT22;32377;52.182;5.398;2023-12-20T01:16:48;6.20;99.90
46652;DHT22;32377;52.182;5.398;2023-12-20T01:19:14;6.30;99.90
46652;DHT22;32377;52.182;5.398;2023-12-20T01:21:40;6.20;99.90
46652;DHT22;32377;52.182;5.398;2023-12-20T01:24:06;6.10;99.90
46652;DHT22;32377;52.182;5.398;2023-12-20T01:26:31;6.20;99.90
46652;DHT22;32377;52.182;5.398;2023-12-20T01:28:57;6.30;99.90
46652;DHT22;32377;52.182;5.398;2023-12-20T01:31:22;6.40;99.90
46652;DHT22;32377;52.182;5.398;2023-12-20T01:33:48;6.40;99.90
46652;DHT22;32377;52.182;5.398;2023-12-20T01:36:14;6.30;99.90
46652;DHT22;32377;52.182;5.398;2023-12-20T01:38:40;6.40;99.90
46652;DHT22;32377;52.182;5.398;2023-12-20T01:41:05;6.60;99.90
46652;DHT22;32377;52.182;5.398;2023-12-20T01:43:31;6.60;99.90
46652;DHT22;32377;52.182;5.398;2023-12-20T01:45:57;6.60;99.90
46652;DHT22;32377;52.182;5.398;2023-12-20T01:48:24;6.70;99.90
46652;DHT22;32377;52.182;5.398;2023-12-20T01:50:50;6.60;99.90
46652;DHT22;32377;52.182;5.398;2023-12-20T01:53:17;6.60;99.90
46652;DHT22;32377;52.182;5.398;2023-12-20T01:55:44;6.50;99.90
46652;DHT22;32377;52.182;5.398;2023-12-20T01:58:11;6.50;99.90
46652;DHT22;32377;52.182;5.398;2023-12-20T02:00:37;6.70;99.90
46652;DHT22;32377;52.182;5.398;2023-12-20T02:03:04;6.70;99.90
46652;DHT22;32377;52.182;5.398;2023-12-20T02:05:31;6.60;99.90
46652;DHT22;32377;52.182;5.398;2023-12-20T02:07:57;6.60;99.90
46652;DHT22;32377;52.182;5.398;2023-12-20T02:10:23;6.70;99.90
46652;DHT22;32377;52.182;5.398;2023-12-20T02:12:49;6.70;99.90
46652;DHT22;32377;52.182;5.398;2023-12-20T02:15:14;6.80;99.90
46652;DHT22;32377;52.182;5.398;2023-12-20T02:17:40;6.80;99.90
46652;DHT22;32377;52.182;5.398;2023-12-20T02:20:06;6.80;99.90
46652;DHT22;32377;52.182;5.398;2023-12-20T02:22:32;6.80;99.90
46652;DHT22;32377;52.182;5.398;2023-12-20T02:24:58;6.80;99.90
46652;DHT22;32377;52.182;5.398;2023-12-20T02:27:23;6.90;99.90
46652;DHT22;32377;52.182;5.398;2023-12-20T02:29:50;6.90;99.90
46652;DHT22;32377;52.182;5.398;2023-12-20T02:32:17;6.80;99.90
46652;DHT22;32377;52.182;5.398;2023-12-20T02:34:43;6.80;99.90
46652;DHT22;32377;52.182;5.398;2023-12-20T02:37:09;6.80;99.90
46652;DHT22;32377;52.182;5.398;2023-12-20T02:39:35;6.80;99.90
46652;DHT22;32377;52.182;5.398;2023-12-20T02:42:00;6.80;99.90
46652;DHT22;32377;52.182;5.398;2023-12-20T02:44:26;6.80;99.90
46652;DHT22;32377;52.182;5.398;2023-12-20T02:46:51;6.80;99.90
46652;DHT22;32377;52.182;5.398;2023-12-20T02:49:17;6.80;99.90
46652;DHT22;32377;52.182;5.398;2023-12-20T02:51:43;6.80;99.90
46652;DHT22;32377;52.182;5.398;2023-12-20T02:54:09;6.70;99.90
46652;DHT22;32377;52.182;5.398;2023-12-20T02:56:34;6.70;99.90
46652;DHT22;32377;52.182;5.398;2023-12-20T02:59:00;6.80;99.90
46652;DHT22;32377;52.182;5.398;2023-12-20T03:01:26;6.70;99.90
46652;DHT22;32377;52.182;5.398;2023-12-20T03:03:52;6.70;99.90
46652;DHT22;32377;52.182;5.398;2023-12-20T03:06:18;6.70;99.90
46652;DHT22;32377;52.182;5.398;2023-12-20T03:08:44;6.70;99.90
46652;DHT22;32377;52.182;5.398;2023-12-20T03:11:10;6.80;99.90
46652;DHT22;32377;52.182;5.398;2023-12-20T03:13:35;6.70;99.90
46652;DHT22;32377;52.182;5.398;2023-12-20T03:16:01;6.80;99.90
46652;DHT22;32377;52.182;5.398;2023-12-20T03:18:33;6.80;99.90
46652;DHT22;32377;52.182;5.398;2023-12-20T03:20:58;6.80;99.90
46652;DHT22;32377;52.182;5.398;2023-12-20T03:23:24;6.80;99.90
46652;DHT22;32377;52.182;5.398;2023-12-20T03:25:49;6.80;99.90
46652;DHT22;32377;52.182;5.398;2023-12-20T03:28:15;6.80;99.90
46652;DHT22;32377;52.182;5.398;2023-12-20T03:30:41;6.90;99.90
46652;DHT22;32377;52.182;5.398;2023-12-20T03:33:06;6.90;99.90
46652;DHT22;32377;52.182;5.398;2023-12-20T03:35:33;6.90;99.90
46652;DHT22;32377;52.182;5.398;2023-12-20T03:37:58;7.00;99.90
46652;DHT22;32377;52.182;5.398;2023-12-20T03:40:25;7.10;99.90
46652;DHT22;32377;52.182;5.398;2023-12-20T03:42:51;7.10;99.90
46652;DHT22;32377;52.182;5.398;2023-12-20T03:45:16;7.10;99.90
46652;DHT22;32377;52.182;5.398;2023-12-20T03:47:42;7.10;99.90
46652;DHT22;32377;52.182;5.398;2023-12-20T03:50:08;7.00;99.90
46652;DHT22;32377;52.182;5.398;2023-12-20T03:52:33;7.00;99.90
46652;DHT22;32377;52.182;5.398;2023-12-20T03:54:59;6.90;99.90
46652;DHT22;32377;52.182;5.398;2023-12-20T03:57:24;6.90;99.90
46652;DHT22;32377;52.182;5.398;2023-12-20T03:59:50;6.90;99.90
46652;DHT22;32377;52.182;5.398;2023-12-20T04:02:15;7.00;99.90
46652;DHT22;32377;52.182;5.398;2023-12-20T04:04:43;7.10;99.90
46652;DHT22;32377;52.182;5.398;2023-12-20T04:07:08;7.10;99.90
46652;DHT22;32377;52.182;5.398;2023-12-20T04:09:34;7.20;99.90
46652;DHT22;32377;52.182;5.398;2023-12-20T04:12:00;7.20;99.90
46652;DHT22;32377;52.182;5.398;2023-12-20T04:14:25;7.30;99.90
46652;DHT22;32377;52.182;5.398;2023-12-20T04:16:51;7.30;99.90
46652;DHT22;32377;52.182;5.398;2023-12-20T04:19:16;7.30;99.90
46652;DHT22;32377;52.182;5.398;2023-12-20T04:21:42;7.30;99.90
46652;DHT22;32377;52.182;5.398;2023-12-20T04:24:07;7.30;99.90
46652;DHT22;32377;52.182;5.398;2023-12-20T04:26:33;7.40;99.90
46652;DHT22;32377;52.182;5.398;2023-12-20T04:28:59;7.40;99.90
46652;DHT22;32377;52.182;5.398;2023-12-20T04:31:24;7.40;99.90
46652;DHT22;32377;52.182;5.398;2023-12-20T04:33:50;7.40;99.90
46652;DHT22;32377;52.182;5.398;2023-12-20T04:36:15;7.50;99.90
46652;DHT22;32377;52.182;5.398;2023-12-20T04:38:41;7.50;99.90
46652;DHT22;32377;52.182;5.398;2023-12-20T04:41:07;7.60;99.90
46652;DHT22;32377;52.182;5.398;2023-12-20T04:43:32;7.60;99.90
46652;DHT22;32377;52.182;5.398;2023-12-20T04:45:58;7.60;99.90
46652;DHT22;32377;52.182;5.398;2023-12-20T04:48:24;7.60;99.90
46652;DHT22;32377;52.182;5.398;2023-12-20T04:50:49;7.60;99.90
46652;DHT22;32377;52.182;5.398;2023-12-20T04:53:15;7.70;99.90
46652;DHT22;32377;52.182;5.398;2023-12-20T04:55:40;7.70;99.90
46652;DHT22;32377;52.182;5.398;2023-12-20T04:58:06;7.70;99.90
46652;DHT22;32377;52.182;5.398;2023-12-20T05:00:31;7.70;99.90
46652;DHT22;32377;52.182;5.398;2023-12-20T05:03:02;7.70;99.90
46652;DHT22;32377;52.182;5.398;2023-12-20T05:05:36;7.70;99.90
46652;DHT22;32377;52.182;5.398;2023-12-20T05:08:01;7.70;99.90
46652;DHT22;32377;52.182;5.398;2023-12-20T05:10:27;7.70;99.90
46652;DHT22;32377;52.182;5.398;2023-12-20T05:12:53;7.70;99.90
46652;DHT22;32377;52.182;5.398;2023-12-20T05:15:18;7.80;99.90
46652;DHT22;32377;52.182;5.398;2023-12-20T05:17:44;7.80;99.90
46652;DHT22;32377;52.182;5.398;2023-12-20T05:20:10;7.80;99.90
46652;DHT22;32377;52.182;5.398;2023-12-20T05:22:36;7.80;99.90
46652;DHT22;32377;52.182;5.398;2023-12-20T05:25:01;7.80;99.90
46652;DHT22;32377;52.182;5.398;2023-12-20T05:27:27;7.80;99.90
46652;DHT22;32377;52.182;5.398;2023-12-20T05:29:53;7.80;99.90
46652;DHT22;32377;52.182;5.398;2023-12-20T05:32:23;7.90;99.90
46652;DHT22;32377;52.182;5.398;2023-12-20T05:34:48;7.90;99.90
46652;DHT22;32377;52.182;5.398;2023-12-20T05:37:14;7.90;99.90
46652;DHT22;32377;52.182;5.398;2023-12-20T05:39:39;7.90;99.90
46652;DHT22;32377;52.182;5.398;2023-12-20T05:42:05;7.90;99.90
46652;DHT22;32377;52.182;5.398;2023-12-20T05:44:31;7.90;99.90
46652;DHT22;32377;52.182;5.398;2023-12-20T05:46:56;7.90;99.90
46652;DHT22;32377;52.182;5.398;2023-12-20T05:49:22;7.90;99.90
46652;DHT22;32377;52.182;5.398;2023-12-20T05:51:47;7.90;99.90
46652;DHT22;32377;52.182;5.398;2023-12-20T05:54:13;8.00;99.90
46652;DHT22;32377;52.182;5.398;2023-12-20T05:56:39;7.90;99.90
46652;DHT22;32377;52.182;5.398;2023-12-20T05:59:04;8.00;99.90
46652;DHT22;32377;52.182;5.398;2023-12-20T06:01:30;8.00;99.90
46652;DHT22;32377;52.182;5.398;2023-12-20T06:03:56;8.00;99.90
46652;DHT22;32377;52.182;5.398;2023-12-20T06:06:21;8.00;99.90
46652;DHT22;32377;52.182;5.398;2023-12-20T06:08:55;8.00;99.90
46652;DHT22;32377;52.182;5.398;2023-12-20T06:11:21;8.00;99.90
46652;DHT22;32377;52.182;5.398;2023-12-20T06:13:46;8.10;99.90
46652;DHT22;32377;52.182;5.398;2023-12-20T06:16:12;8.00;99.90
46652;DHT22;32377;52.182;5.398;2023-12-20T06:18:38;8.00;99.90
46652;DHT22;32377;52.182;5.398;2023-12-20T06:21:04;8.00;99.90
46652;DHT22;32377;52.182;5.398;2023-12-20T06:23:29;8.00;99.90
46652;DHT22;32377;52.182;5.398;2023-12-20T06:25:55;8.00;99.90
46652;DHT22;32377;52.182;5.398;2023-12-20T06:28:20;8.10;99.90
46652;DHT22;32377;52.182;5.398;2023-12-20T06:30:46;8.10;99.90
46652;DHT22;32377;52.182;5.398;2023-12-20T06:33:14;8.10;99.90
46652;DHT22;32377;52.182;5.398;2023-12-20T06:35:40;8.10;99.90
46652;DHT22;32377;52.182;5.398;2023-12-20T06:38:05;8.10;99.90
46652;DHT22;32377;52.182;5.398;2023-12-20T06:40:31;8.20;99.90
46652;DHT22;32377;52.182;5.398;2023-12-20T06:42:56;8.20;99.90
46652;DHT22;32377;52.182;5.398;2023-12-20T06:45:22;8.20;99.90
46652;DHT22;32377;52.182;5.398;2023-12-20T06:47:47;8.20;99.90
46652;DHT22;32377;52.182;5.398;2023-12-20T06:50:13;8.20;99.90
46652;DHT22;32377;52.182;5.398;2023-12-20T06:52:39;8.20;99.90
46652;DHT22;32377;52.182;5.398;2023-12-20T06:55:05;8.20;99.90
46652;DHT22;32377;52.182;5.398;2023-12-20T06:57:30;8.20;99.90
46652;DHT22;32377;52.182;5.398;2023-12-20T06:59:56;8.20;99.90
46652;DHT22;32377;52.182;5.398;2023-12-20T07:02:23;8.20;99.90
46652;DHT22;32377;52.182;5.398;2023-12-20T07:04:48;8.20;99.90
46652;DHT22;32377;52.182;5.398;2023-12-20T07:07:14;8.20;99.90
46652;DHT22;32377;52.182;5.398;2023-12-20T07:09:40;8.30;87.20
46652;DHT22;32377;52.182;5.398;2023-12-20T07:12:08;8.30;57.40
46652;DHT22;32377;52.182;5.398;2023-12-20T07:14:34;8.30;30.40
46652;DHT22;32377;52.182;5.398;2023-12-20T07:16:59;8.30;12.60
46652;DHT22;32377;52.182;5.398;2023-12-20T07:19:25;8.30;1.00
46652;DHT22;32377;52.182;5.398;2023-12-20T07:21:50;8.30;1.00
46652;DHT22;32377;52.182;5.398;2023-12-20T07:24:16;8.30;1.00
46652;DHT22;32377;52.182;5.398;2023-12-20T07:26:41;8.30;1.00
46652;DHT22;32377;52.182;5.398;2023-12-20T07:29:08;8.40;1.00
46652;DHT22;32377;52.182;5.398;2023-12-20T07:31:34;8.40;1.00
46652;DHT22;32377;52.182;5.398;2023-12-20T07:34:00;8.50;99.90
46652;DHT22;32377;52.182;5.398;2023-12-20T07:36:25;8.50;99.90
46652;DHT22;32377;52.182;5.398;2023-12-20T07:38:51;8.50;99.90
46652;DHT22;32377;52.182;5.398;2023-12-20T07:41:16;8.50;99.90
46652;DHT22;32377;52.182;5.398;2023-12-20T07:43:42;8.50;99.90
46652;DHT22;32377;52.182;5.398;2023-12-20T07:46:08;8.40;99.90
46652;DHT22;32377;52.182;5.398;2023-12-20T07:48:37;8.50;99.90
46652;DHT22;32377;52.182;5.398;2023-12-20T07:51:06;8.50;99.90
46652;DHT22;32377;52.182;5.398;2023-12-20T07:53:33;8.50;99.90
46652;DHT22;32377;52.182;5.398;2023-12-20T07:56:00;8.50;99.90
46652;DHT22;32377;52.182;5.398;2023-12-20T07:58:25;8.50;99.90
46652;DHT22;32377;52.182;5.398;2023-12-20T08:00:51;8.50;99.90
46652;DHT22;32377;52.182;5.398;2023-12-20T08:03:17;8.60;99.90
46652;DHT22;32377;52.182;5.398;2023-12-20T08:05:42;8.60;99.90
46652;DHT22;32377;52.182;5.398;2023-12-20T08:08:08;8.50;99.90
46652;DHT22;32377;52.182;5.398;2023-12-20T08:10:33;8.60;99.90
46652;DHT22;32377;52.182;5.398;2023-12-20T08:12:59;8.60;99.90
46652;DHT22;32377;52.182;5.398;2023-12-20T08:15:24;8.60;99.90
46652;DHT22;32377;52.182;5.398;2023-12-20T08:17:50;8.60;99.90
46652;DHT22;32377;52.182;5.398;2023-12-20T08:20:18;8.60;99.90
46652;DHT22;32377;52.182;5.398;2023-12-20T08:22:44;8.70;99.90
46652;DHT22;32377;52.182;5.398;2023-12-20T08:25:10;8.70;99.90
46652;DHT22;32377;52.182;5.398;2023-12-20T08:27:41;8.70;99.90
46652;DHT22;32377;52.182;5.398;2023-12-20T08:30:10;8.70;99.90
46652;DHT22;32377;52.182;5.398;2023-12-20T08:32:36;8.70;99.90
46652;DHT22;32377;52.182;5.398;2023-12-20T08:35:02;8.70;99.90
46652;DHT22;32377;52.182;5.398;2023-12-20T08:37:28;8.70;99.90
46652;DHT22;32377;52.182;5.398;2023-12-20T08:39:54;8.70;99.90
46652;DHT22;32377;52.182;5.398;2023-12-20T08:42:19;8.70;99.90
46652;DHT22;32377;52.182;5.398;2023-12-20T08:44:45;8.70;99.90
46652;DHT22;32377;52.182;5.398;2023-12-20T08:47:10;8.80;99.90
46652;DHT22;32377;52.182;5.398;2023-12-20T08:49:38;8.80;99.90
46652;DHT22;32377;52.182;5.398;2023-12-20T08:52:04;8.80;99.90
46652;DHT22;32377;52.182;5.398;2023-12-20T08:54:30;8.70;99.90
46652;DHT22;32377;52.182;5.398;2023-12-20T08:56:56;8.80;99.90
46652;DHT22;32377;52.182;5.398;2023-12-20T08:59:21;8.70;99.90
46652;DHT22;32377;52.182;5.398;2023-12-20T09:01:47;8.70;99.90
46652;DHT22;32377;52.182;5.398;2023-12-20T09:04:13;8.70;99.90
46652;DHT22;32377;52.182;5.398;2023-12-20T09:06:39;8.70;99.90
46652;DHT22;32377;52.182;5.398;2023-12-20T09:09:04;8.70;99.90
46652;DHT22;32377;52.182;5.398;2023-12-20T09:11:30;8.70;99.90
46652;DHT22;32377;52.182;5.398;2023-12-20T09:13:56;8.70;99.90
46652;DHT22;32377;52.182;5.398;2023-12-20T09:16:21;8.70;99.90
46652;DHT22;32377;52.182;5.398;2023-12-20T09:18:47;8.70;1.00
46652;DHT22;32377;52.182;5.398;2023-12-20T09:21:13;8.70;1.00
46652;DHT22;32377;52.182;5.398;2023-12-20T09:23:38;8.70;1.00
46652;DHT22;32377;52.182;5.398;2023-12-20T09:26:04;8.80;1.00
46652;DHT22;32377;52.182;5.398;2023-12-20T09:28:30;8.80;1.00
46652;DHT22;32377;52.182;5.398;2023-12-20T09:30:55;8.90;1.00
46652;DHT22;32377;52.182;5.398;2023-12-20T09:33:21;8.90;1.00
46652;DHT22;32377;52.182;5.398;2023-12-20T09:35:47;8.90;1.00
46652;DHT22;32377;52.182;5.398;2023-12-20T09:38:12;8.90;1.00
46652;DHT22;32377;52.182;5.398;2023-12-20T09:40:41;8.90;1.00
46652;DHT22;32377;52.182;5.398;2023-12-20T09:43:19;9.00;1.00
46652;DHT22;32377;52.182;5.398;2023-12-20T09:45:48;9.10;1.00
46652;DHT22;32377;52.182;5.398;2023-12-20T09:48:18;9.10;99.90
46652;DHT22;32377;52.182;5.398;2023-12-20T09:50:44;9.10;99.90
46652;DHT22;32377;52.182;5.398;2023-12-20T09:53:10;9.00;99.90
46652;DHT22;32377;52.182;5.398;2023-12-20T09:55:38;9.00;99.90
46652;DHT22;32377;52.182;5.398;2023-12-20T09:58:04;9.00;99.90
46652;DHT22;32377;52.182;5.398;2023-12-20T10:00:31;9.10;99.90
46652;DHT22;32377;52.182;5.398;2023-12-20T10:02:57;9.10;99.90
46652;DHT22;32377;52.182;5.398;2023-12-20T10:05:31;9.20;99.90
46652;DHT22;32377;52.182;5.398;2023-12-20T10:07:57;9.30;99.90
46652;DHT22;32377;52.182;5.398;2023-12-20T10:10:23;9.40;99.90
46652;DHT22;32377;52.182;5.398;2023-12-20T10:13:09;9.50;99.00
46652;DHT22;32377;52.182;5.398;2023-12-20T10:15:36;9.50;16.90
46652;DHT22;32377;52.182;5.398;2023-12-20T10:18:02;9.50;1.00
46652;DHT22;32377;52.182;5.398;2023-12-20T10:20:28;9.50;1.00
46652;DHT22;32377;52.182;5.398;2023-12-20T10:22:58;9.60;1.00
46652;DHT22;32377;52.182;5.398;2023-12-20T10:25:24;9.70;99.90
46652;DHT22;32377;52.182;5.398;2023-12-20T10:28:16;9.70;99.90
46652;DHT22;32377;52.182;5.398;2023-12-20T10:30:48;9.70;99.90
46652;DHT22;32377;52.182;5.398;2023-12-20T10:33:26;9.80;99.90
46652;DHT22;32377;52.182;5.398;2023-12-20T10:35:52;9.70;99.90
46652;DHT22;32377;52.182;5.398;2023-12-20T10:38:18;9.60;99.90
46652;DHT22;32377;52.182;5.398;2023-12-20T10:40:46;9.60;99.90
46652;DHT22;32377;52.182;5.398;2023-12-20T10:43:12;9.80;99.90
46652;DHT22;32377;52.182;5.398;2023-12-20T10:45:38;9.80;99.90
46652;DHT22;32377;52.182;5.398;2023-12-20T10:48:04;9.90;99.90
46652;DHT22;32377;52.182;5.398;2023-12-20T10:50:31;10.00;99.90
46652;DHT22;32377;52.182;5.398;2023-12-20T10:52:57;10.00;99.90
46652;DHT22;32377;52.182;5.398;2023-12-20T10:55:24;10.10;99.90
46652;DHT22;32377;52.182;5.398;2023-12-20T10:57:51;10.20;99.90
46652;DHT22;32377;52.182;5.398;2023-12-20T11:00:18;10.20;92.60
46652;DHT22;32377;52.182;5.398;2023-12-20T11:02:44;10.30;43.70
46652;DHT22;32377;52.182;5.398;2023-12-20T11:05:19;10.30;1.00
46652;DHT22;32377;52.182;5.398;2023-12-20T11:07:54;10.20;1.00
46652;DHT22;32377;52.182;5.398;2023-12-20T11:10:26;10.20;1.00
46652;DHT22;32377;52.182;5.398;2023-12-20T11:13:23;10.20;1.00
46652;DHT22;32377;52.182;5.398;2023-12-20T11:15:52;10.30;1.00
46652;DHT22;32377;52.182;5.398;2023-12-20T11:18:18;10.40;1.00
46652;DHT22;32377;52.182;5.398;2023-12-20T11:20:43;10.40;1.00
46652;DHT22;32377;52.182;5.398;2023-12-20T11:23:09;10.40;1.00
46652;DHT22;32377;52.182;5.398;2023-12-20T11:25:55;10.40;1.00
46652;DHT22;32377;52.182;5.398;2023-12-20T11:28:22;10.30;1.00
46652;DHT22;32377;52.182;5.398;2023-12-20T11:30:54;10.30;1.00
46652;DHT22;32377;52.182;5.398;2023-12-20T11:35:57;10.60;1.00
46652;DHT22;32377;52.182;5.398;2023-12-20T11:38:24;10.70;1.00
46652;DHT22;32377;52.182;5.398;2023-12-20T11:40:50;10.80;1.00
46652;DHT22;32377;52.182;5.398;2023-12-20T11:43:35;10.80;1.00
46652;DHT22;32377;52.182;5.398;2023-12-20T11:46:08;10.80;99.90
46652;DHT22;32377;52.182;5.398;2023-12-20T11:48:38;10.70;99.90
46652;DHT22;32377;52.182;5.398;2023-12-20T11:51:12;10.70;99.90
46652;DHT22;32377;52.182;5.398;2023-12-20T11:53:38;10.60;99.90
46652;DHT22;32377;52.182;5.398;2023-12-20T11:56:07;10.60;99.90
46652;DHT22;32377;52.182;5.398;2023-12-20T11:58:36;10.60;99.90
46652;DHT22;32377;52.182;5.398;2023-12-20T12:01:02;10.60;99.90
46652;DHT22;32377;52.182;5.398;2023-12-20T12:03:28;10.60;99.90
46652;DHT22;32377;52.182;5.398;2023-12-20T12:05:53;10.60;99.90
46652;DHT22;32377;52.182;5.398;2023-12-20T12:08:19;10.60;99.90
46652;DHT22;32377;52.182;5.398;2023-12-20T12:10:45;10.60;99.90
46652;DHT22;32377;52.182;5.398;2023-12-20T12:13:11;10.50;99.90
46652;DHT22;32377;52.182;5.398;2023-12-20T12:15:37;10.50;99.90
46652;DHT22;32377;52.182;5.398;2023-12-20T12:18:03;10.40;99.90
46652;DHT22;32377;52.182;5.398;2023-12-20T12:20:29;10.50;99.90
46652;DHT22;32377;52.182;5.398;2023-12-20T12:25:25;10.50;99.90
46652;DHT22;32377;52.182;5.398;2023-12-20T12:27:51;10.60;99.90
46652;DHT22;32377;52.182;5.398;2023-12-20T12:30:16;10.60;99.90
46652;DHT22;32377;52.182;5.398;2023-12-20T12:32:44;10.60;99.90
46652;DHT22;32377;52.182;5.398;2023-12-20T12:35:10;10.60;99.90
46652;DHT22;32377;52.182;5.398;2023-12-20T12:37:38;10.50;99.90
46652;DHT22;32377;52.182;5.398;2023-12-20T12:40:10;10.60;99.90
46652;DHT22;32377;52.182;5.398;2023-12-20T12:42:40;10.50;99.90
46652;DHT22;32377;52.182;5.398;2023-12-20T12:45:07;10.50;99.90
46652;DHT22;32377;52.182;5.398;2023-12-20T12:47:34;10.50;99.90
46652;DHT22;32377;52.182;5.398;2023-12-20T12:49:59;10.60;99.90
46652;DHT22;32377;52.182;5.398;2023-12-20T12:52:25;10.60;99.90
46652;DHT22;32377;52.182;5.398;2023-12-20T12:54:52;10.50;99.90
46652;DHT22;32377;52.182;5.398;2023-12-20T12:57:18;10.50;99.90
46652;DHT22;32377;52.182;5.398;2023-12-20T12:59:45;10.50;1.00
46652;DHT22;32377;52.182;5.398;2023-12-20T13:02:14;10.50;99.90
46652;DHT22;32377;52.182;5.398;2023-12-20T13:04:40;10.40;99.90
46652;DHT22;32377;52.182;5.398;2023-12-20T13:07:07;10.40;1.00
46652;DHT22;32377;52.182;5.398;2023-12-20T13:09:32;10.40;1.00
46652;DHT22;32377;52.182;5.398;2023-12-20T13:11:58;10.50;1.00
46652;DHT22;32377;52.182;5.398;2023-12-20T13:14:24;10.40;1.00
46652;DHT22;32377;52.182;5.398;2023-12-20T13:16:50;10.40;1.00
46652;DHT22;32377;52.182;5.398;2023-12-20T13:19:15;10.40;1.00
46652;DHT22;32377;52.182;5.398;2023-12-20T13:21:41;10.30;1.00
46652;DHT22;32377;52.182;5.398;2023-12-20T13:24:07;10.30;1.00
46652;DHT22;32377;52.182;5.398;2023-12-20T13:26:32;10.30;1.00
46652;DHT22;32377;52.182;5.398;2023-12-20T13:28:58;10.30;1.00
46652;DHT22;32377;52.182;5.398;2023-12-20T13:31:24;10.30;1.00
46652;DHT22;32377;52.182;5.398;2023-12-20T13:33:50;10.30;1.00
46652;DHT22;32377;52.182;5.398;2023-12-20T13:36:17;10.20;1.00
46652;DHT22;32377;52.182;5.398;2023-12-20T13:38:43;10.20;1.00
46652;DHT22;32377;52.182;5.398;2023-12-20T13:41:09;10.20;1.00
46652;DHT22;32377;52.182;5.398;2023-12-20T13:43:34;10.20;1.00
46652;DHT22;32377;52.182;5.398;2023-12-20T13:46:00;10.20;1.00
46652;DHT22;32377;52.182;5.398;2023-12-20T13:48:26;10.20;1.00
46652;DHT22;32377;52.182;5.398;2023-12-20T13:50:51;10.20;1.00
46652;DHT22;32377;52.182;5.398;2023-12-20T13:53:17;10.20;1.00
46652;DHT22;32377;52.182;5.398;2023-12-20T13:55:42;10.20;1.00
46652;DHT22;32377;52.182;5.398;2023-12-20T13:58:08;10.20;1.00
46652;DHT22;32377;52.182;5.398;2023-12-20T14:00:35;10.20;1.00
46652;DHT22;32377;52.182;5.398;2023-12-20T14:03:02;10.30;1.00
46652;DHT22;32377;52.182;5.398;2023-12-20T14:05:28;10.30;1.00
46652;DHT22;32377;52.182;5.398;2023-12-20T14:07:54;10.30;1.00
46652;DHT22;32377;52.182;5.398;2023-12-20T14:10:19;10.20;1.00
46652;DHT22;32377;52.182;5.398;2023-12-20T14:12:45;10.20;1.00
46652;DHT22;32377;52.182;5.398;2023-12-20T14:15:11;10.20;1.00
46652;DHT22;32377;52.182;5.398;2023-12-20T14:17:39;10.10;1.00
46652;DHT22;32377;52.182;5.398;2023-12-20T14:20:08;10.10;1.00
46652;DHT22;32377;52.182;5.398;2023-12-20T14:22:34;10.20;1.00
46652;DHT22;32377;52.182;5.398;2023-12-20T14:24:59;10.10;1.00
46652;DHT22;32377;52.182;5.398;2023-12-20T14:27:26;10.20;1.00
46652;DHT22;32377;52.182;5.398;2023-12-20T14:29:53;10.10;1.00
46652;DHT22;32377;52.182;5.398;2023-12-20T14:32:19;10.10;1.00
46652;DHT22;32377;52.182;5.398;2023-12-20T14:34:45;10.10;1.00
46652;DHT22;32377;52.182;5.398;2023-12-20T14:37:10;10.10;1.00
46652;DHT22;32377;52.182;5.398;2023-12-20T14:39:36;10.20;1.00
46652;DHT22;32377;52.182;5.398;2023-12-20T14:42:09;10.20;1.00
46652;DHT22;32377;52.182;5.398;2023-12-20T14:44:38;10.20;1.00
46652;DHT22;32377;52.182;5.398;2023-12-20T14:47:04;10.20;1.00
46652;DHT22;32377;52.182;5.398;2023-12-20T14:49:30;10.20;1.00
46652;DHT22;32377;52.182;5.398;2023-12-20T14:51:56;10.20;1.00
46652;DHT22;32377;52.182;5.398;2023-12-20T14:54:22;10.20;1.00
46652;DHT22;32377;52.182;5.398;2023-12-20T14:56:47;10.10;1.00
46652;DHT22;32377;52.182;5.398;2023-12-20T14:59:18;10.10;9.30
46652;DHT22;32377;52.182;5.398;2023-12-20T15:01:44;10.10;23.80
46652;DHT22;32377;52.182;5.398;2023-12-20T15:04:09;10.10;41.40
46652;DHT22;32377;52.182;5.398;2023-12-20T15:06:35;10.10;68.40
46652;DHT22;32377;52.182;5.398;2023-12-20T15:09:01;10.10;84.20
46652;DHT22;32377;52.182;5.398;2023-12-20T15:11:27;10.00;99.30
46652;DHT22;32377;52.182;5.398;2023-12-20T15:13:54;10.00;99.90
46652;DHT22;32377;52.182;5.398;2023-12-20T15:16:23;10.00;99.90
46652;DHT22;32377;52.182;5.398;2023-12-20T15:18:49;10.00;99.90
46652;DHT22;32377;52.182;5.398;2023-12-20T15:21:16;10.00;99.90
46652;DHT22;32377;52.182;5.398;2023-12-20T15:23:42;10.00;99.90
46652;DHT22;32377;52.182;5.398;2023-12-20T15:26:20;10.00;99.90
46652;DHT22;32377;52.182;5.398;2023-12-20T15:28:46;10.00;99.90
46652;DHT22;32377;52.182;5.398;2023-12-20T15:31:12;10.00;99.90
46652;DHT22;32377;52.182;5.398;2023-12-20T15:33:38;10.00;99.90
46652;DHT22;32377;52.182;5.398;2023-12-20T15:36:04;9.90;99.90
46652;DHT22;32377;52.182;5.398;2023-12-20T15:38:30;9.90;99.90
46652;DHT22;32377;52.182;5.398;2023-12-20T15:40:56;9.90;99.90
46652;DHT22;32377;52.182;5.398;2023-12-20T15:43:21;9.90;1.00
46652;DHT22;32377;52.182;5.398;2023-12-20T15:45:47;9.80;1.00